Time;durP1;ratioP1;P1;durP2;ratioP2;P2;SDS_P1;SDS_P2;PMS_P1;PMS_P2;Temp;Humidity;BMP_temperature;BMP_pressure;BME280_temperature;BME280_humidity;BME280_pressure;Samples;Min_cycle;Max_cycle;Signal;HPM_P1;HPM_P2
2022/05/01 00:00:58;;;;;;;1999.90;999.90;;;15.20;49.30;;;;;;5028656;28;20498;-81
2022/05/01 00:03:36;;;;;;;1999.90;999.90;;;15.20;49.30;;;;;;5045955;28;20038;-81
2022/05/01 00:06:04;;;;;;;1999.90;999.90;;;15.20;49.40;;;;;;5028712;28;20056;-81
2022/05/01 00:08:30;;;;;;;1999.90;999.90;;;15.20;49.50;;;;;;5015616;28;20021;-81
2022/05/01 00:10:57;;;;;;;1999.90;999.90;;;15.10;49.50;;;;;;5031624;28;20064;-81
2022/05/01 00:13:23;;;;;;;1999.90;999.90;;;15.10;49.50;;;;;;4988031;28;20045;-81
2022/05/01 00:15:50;;;;;;;1999.90;999.90;;;15.10;49.60;;;;;;5031215;28;20033;-81
2022/05/01 00:18:17;;;;;;;1999.90;999.90;;;15.00;49.60;;;;;;5029028;28;20072;-81
2022/05/01 00:20:43;;;;;;;1999.90;999.90;;;14.90;49.70;;;;;;5031220;28;20037;-81
2022/05/01 00:23:09;;;;;;;1999.90;999.90;;;14.90;49.80;;;;;;5033082;28;20471;-81
2022/05/01 00:25:36;;;;;;;1999.90;999.90;;;14.80;49.80;;;;;;5029790;28;20045;-81
2022/05/01 00:28:03;;;;;;;1999.90;999.90;;;14.80;49.90;;;;;;5024362;28;20029;-81
2022/05/01 00:30:29;;;;;;;1999.90;999.90;;;14.80;50.00;;;;;;5029268;28;20109;-81
2022/05/01 00:38:38;;;;;;;1999.90;999.90;;;14.60;50.00;;;;;;5014298;28;20038;-81
2022/05/01 00:41:07;;;;;;;1999.90;999.90;;;14.60;50.10;;;;;;4993903;28;20486;-81
2022/05/01 00:43:56;;;;;;;1999.90;999.90;;;14.60;50.10;;;;;;4990656;28;20034;-81
2022/05/01 00:46:24;;;;;;;1999.90;999.90;;;14.50;50.10;;;;;;4998287;28;20045;-81
2022/05/01 00:48:50;;;;;;;1999.90;999.90;;;14.50;50.20;;;;;;5010253;28;20113;-81
2022/05/01 00:51:17;;;;;;;1999.90;999.90;;;14.40;50.20;;;;;;4992944;28;20052;-81
2022/05/01 00:53:43;;;;;;;1999.90;999.90;;;14.40;50.20;;;;;;5010850;28;20505;-81
2022/05/01 00:56:09;;;;;;;1999.90;999.90;;;14.40;50.30;;;;;;4992381;28;20595;-81
2022/05/01 00:58:36;;;;;;;1999.90;999.90;;;14.40;50.30;;;;;;4993652;28;20050;-81
2022/05/01 01:01:02;;;;;;;1999.90;999.90;;;14.40;50.30;;;;;;4992903;28;20045;-81
2022/05/01 01:03:28;;;;;;;1999.90;999.90;;;14.40;50.30;;;;;;5010024;28;20061;-81
2022/05/01 01:05:54;;;;;;;1999.90;999.90;;;14.40;50.30;;;;;;4993611;28;20046;-82
2022/05/01 01:08:21;;;;;;;1999.90;999.90;;;14.40;50.20;;;;;;5009617;28;20053;-81
2022/05/01 01:10:47;;;;;;;1999.90;999.90;;;14.40;50.20;;;;;;5013596;28;20041;-81
2022/05/01 01:13:13;;;;;;;1999.90;999.90;;;14.50;50.20;;;;;;5022193;28;20049;-81
2022/05/01 01:15:41;;;;;;;1999.90;999.90;;;14.50;50.20;;;;;;5041232;28;20046;-81
2022/05/01 01:18:07;;;;;;;1999.90;999.90;;;14.50;50.20;;;;;;5027872;28;20040;-81
2022/05/01 01:20:36;;;;;;;1999.90;999.90;;;14.50;50.20;;;;;;5028359;28;20033;-81
2022/05/01 01:23:02;;;;;;;1999.90;999.90;;;14.50;50.20;;;;;;5027633;28;20025;-81
2022/05/01 01:25:30;;;;;;;1999.90;999.90;;;14.50;50.20;;;;;;5012800;28;20405;-81
2022/05/01 01:28:05;;;;;;;1999.90;999.90;;;14.50;50.20;;;;;;5013708;28;20072;-81
2022/05/01 01:33:27;;;;;;;1999.90;999.90;;;14.40;50.30;;;;;;5000203;28;20034;-81
2022/05/01 01:35:54;;;;;;;1999.90;999.90;;;14.40;50.40;;;;;;5027614;28;20501;-81
2022/05/01 01:38:20;;;;;;;1999.90;999.90;;;14.30;50.40;;;;;;5015464;28;20387;-81
2022/05/01 01:40:53;;;;;;;1999.90;999.90;;;14.30;50.50;;;;;;5014415;28;20041;-81
2022/05/01 01:43:24;;;;;;;1999.90;999.90;;;14.20;50.50;;;;;;5022899;28;20029;-81
2022/05/01 01:45:51;;;;;;;1999.90;999.90;;;14.20;50.50;;;;;;5026687;28;20048;-81
2022/05/01 01:48:18;;;;;;;1999.90;999.90;;;14.10;50.60;;;;;;5043859;28;20151;-81
2022/05/01 01:51:08;;;;;;;1999.90;999.90;;;14.10;50.60;;;;;;5029449;28;20048;-81
2022/05/01 01:53:35;;;;;;;1999.90;999.90;;;14.00;50.70;;;;;;5030343;28;20041;-81
2022/05/01 01:56:02;;;;;;;1999.90;999.90;;;14.00;50.70;;;;;;4993721;28;20045;-81
2022/05/01 01:58:28;;;;;;;1999.90;999.90;;;13.90;50.80;;;;;;5022316;28;20036;-81
2022/05/01 02:00:56;;;;;;;1999.90;999.90;;;13.90;50.80;;;;;;5027432;28;20033;-81
2022/05/01 02:03:22;;;;;;;1999.90;999.90;;;13.90;50.80;;;;;;5028661;28;20034;-81
2022/05/01 02:05:49;;;;;;;1999.90;999.90;;;13.90;50.80;;;;;;5029594;28;20029;-81
2022/05/01 02:08:16;;;;;;;1999.90;999.90;;;13.80;50.80;;;;;;5010184;28;20029;-81
2022/05/01 02:10:43;;;;;;;1999.90;999.90;;;13.80;50.80;;;;;;5010577;28;20033;-81
2022/05/01 02:13:10;;;;;;;1999.90;999.90;;;13.80;50.90;;;;;;5011794;28;20033;-81
2022/05/01 02:15:36;;;;;;;1999.90;999.90;;;13.80;50.90;;;;;;5026067;28;20030;-81
2022/05/01 02:18:03;;;;;;;1999.90;999.90;;;13.70;50.90;;;;;;5026198;28;20037;-81
2022/05/01 02:21:34;;;;;;;1999.90;999.90;;;13.70;51.00;;;;;;5029729;28;20045;-81
2022/05/01 02:23:19;;;;;;;1999.90;999.90;;;13.60;51.00;;;;;;5031270;28;20505;-81
2022/05/01 02:25:45;;;;;;;1999.90;999.90;;;13.60;51.10;;;;;;5030869;28;20044;-81
2022/05/01 02:28:11;;;;;;;1999.90;999.90;;;13.60;51.20;;;;;;5012721;28;20497;-81
2022/05/01 02:30:38;;;;;;;1999.90;999.90;;;13.50;51.20;;;;;;5027135;28;20030;-81
2022/05/01 02:33:06;;;;;;;1999.90;999.90;;;13.50;51.20;;;;;;5042181;28;20033;-81
2022/05/01 02:35:33;;;;;;;1999.90;999.90;;;13.50;51.20;;;;;;5027564;28;20473;-81
2022/05/01 02:37:59;;;;;;;1999.90;999.90;;;13.50;51.30;;;;;;5027614;28;20029;-81
2022/05/01 02:40:26;;;;;;;1999.90;999.90;;;13.40;51.30;;;;;;5034842;28;20032;-81
2022/05/01 02:42:52;;;;;;;1999.90;999.90;;;13.40;51.30;;;;;;5027616;28;20045;-81
2022/05/01 02:45:18;;;;;;;1999.90;999.90;;;13.40;51.40;;;;;;5026003;28;20405;-81
2022/05/01 02:47:44;;;;;;;1999.90;999.90;;;13.40;51.40;;;;;;5028202;28;20049;-81
2022/05/01 02:50:10;;;;;;;1999.90;999.90;;;13.40;51.40;;;;;;5027098;28;20467;-81
2022/05/01 02:52:36;;;;;;;1999.90;999.90;;;13.30;51.40;;;;;;5022000;28;20056;-81
2022/05/01 02:55:03;;;;;;;1999.90;999.90;;;13.30;51.40;;;;;;5028550;28;20045;-81
2022/05/01 02:57:29;;;;;;;1999.90;999.90;;;13.30;51.50;;;;;;5025079;28;20485;-81
2022/05/01 02:59:55;;;;;;;1999.90;999.90;;;13.30;51.60;;;;;;5042127;28;20032;-81
2022/05/01 03:02:22;;;;;;;1999.90;999.90;;;13.30;51.60;;;;;;5029590;28;20038;-81
2022/05/01 03:04:48;;;;;;;1999.90;999.90;;;13.20;51.60;;;;;;5014145;28;20044;-81
2022/05/01 03:07:15;;;;;;;1999.90;999.90;;;13.20;51.60;;;;;;5027246;28;20049;-81
2022/05/01 03:09:42;;;;;;;1999.90;999.90;;;13.20;51.60;;;;;;5039869;28;20029;-81
2022/05/01 03:12:08;;;;;;;1999.90;999.90;;;13.20;51.60;;;;;;5021359;28;20063;-81
2022/05/01 03:14:34;;;;;;;1999.90;999.90;;;13.20;51.70;;;;;;5028606;28;20028;-81
2022/05/01 03:17:00;;;;;;;1999.90;999.90;;;13.20;51.70;;;;;;5015713;28;20044;-81
2022/05/01 03:22:11;;;;;;;1999.90;999.90;;;13.10;51.80;;;;;;5033189;28;20021;-81
2022/05/01 03:24:38;;;;;;;1999.90;999.90;;;13.10;51.80;;;;;;5031628;28;20033;-81
2022/05/01 03:27:05;;;;;;;1999.90;999.90;;;13.10;51.80;;;;;;5029374;28;20041;-81
2022/05/01 03:29:31;;;;;;;1999.90;999.90;;;13.10;51.80;;;;;;5014533;28;20025;-81
2022/05/01 03:31:59;;;;;;;1999.90;999.90;;;13.10;51.90;;;;;;5030049;28;20041;-81
2022/05/01 03:34:26;;;;;;;1999.90;999.90;;;13.10;51.80;;;;;;5029772;28;20474;-81
2022/05/01 03:36:56;;;;;;;1999.90;999.90;;;13.10;51.80;;;;;;5031094;28;20044;-81
2022/05/01 03:39:22;;;;;;;1999.90;999.90;;;13.20;51.90;;;;;;5014817;28;20042;-81
2022/05/01 03:41:48;;;;;;;1999.90;999.90;;;13.20;51.90;;;;;;5033115;28;20045;-81
2022/05/01 03:44:14;;;;;;;1999.90;999.90;;;13.20;51.90;;;;;;5030333;28;20455;-81
2022/05/01 03:46:41;;;;;;;1999.90;999.90;;;13.10;51.90;;;;;;5022507;28;20037;-81
2022/05/01 03:49:07;;;;;;;1999.90;999.90;;;13.10;51.90;;;;;;5030714;28;20041;-82
2022/05/01 03:51:33;;;;;;;1999.90;999.90;;;13.10;51.90;;;;;;5044375;28;20045;-82
2022/05/01 03:54:02;;;;;;;1999.90;999.90;;;13.10;52.00;;;;;;5045784;28;20033;-82
2022/05/01 03:56:29;;;;;;;1999.90;999.90;;;13.10;52.10;;;;;;5031272;28;20025;-82
2022/05/01 03:58:56;;;;;;;1999.90;999.90;;;13.00;52.10;;;;;;5029991;28;20033;-81
2022/05/01 04:01:22;;;;;;;1999.90;999.90;;;13.00;52.10;;;;;;5029442;28;20033;-82
2022/05/01 04:03:49;;;;;;;1999.90;999.90;;;13.00;52.20;;;;;;5027567;28;20072;-82
2022/05/01 04:06:15;;;;;;;1999.90;999.90;;;13.00;52.10;;;;;;5046101;28;20037;-82
2022/05/01 04:08:42;;;;;;;1999.90;999.90;;;13.00;52.20;;;;;;5032133;28;20482;-82
2022/05/01 04:11:08;;;;;;;1999.90;999.90;;;13.00;52.20;;;;;;5029686;28;20036;-82
2022/05/01 04:13:35;;;;;;;1999.90;999.90;;;13.00;52.20;;;;;;5021630;28;20494;-82
2022/05/01 04:16:02;;;;;;;1999.90;999.90;;;13.00;52.20;;;;;;5012012;28;20045;-82
2022/05/01 04:18:28;;;;;;;1999.90;999.90;;;13.00;52.20;;;;;;5029931;28;20026;-82
2022/05/01 04:20:54;;;;;;;1999.90;999.90;;;13.00;52.30;;;;;;5032374;28;20036;-82
2022/05/01 04:23:21;;;;;;;1999.90;999.90;;;13.00;52.30;;;;;;5032405;28;20494;-82
2022/05/01 04:25:47;;;;;;;1999.90;999.90;;;13.00;52.30;;;;;;5037959;28;20053;-82
2022/05/01 04:28:13;;;;;;;1999.90;999.90;;;13.00;52.40;;;;;;5031111;28;20405;-82
2022/05/01 04:30:40;;;;;;;1999.90;999.90;;;12.90;52.30;;;;;;5028540;28;20034;-82
2022/05/01 04:33:10;;;;;;;1999.90;999.90;;;12.90;52.50;;;;;;5027850;28;20041;-82
2022/05/01 04:35:41;;;;;;;1999.90;999.90;;;12.90;52.50;;;;;;5015768;28;20478;-82
2022/05/01 04:38:11;;;;;;;1999.90;999.90;;;12.90;52.60;;;;;;5028534;28;20280;-81
2022/05/01 04:40:41;;;;;;;1999.90;999.90;;;12.80;52.60;;;;;;5028239;28;20366;-82
2022/05/01 04:43:11;;;;;;;1999.90;999.90;;;12.80;52.60;;;;;;5013755;28;20370;-81
2022/05/01 04:45:38;;;;;;;1999.90;999.90;;;12.80;52.60;;;;;;5027915;28;20399;-81
2022/05/01 04:48:06;;;;;;;1999.90;999.90;;;12.80;52.60;;;;;;5027825;28;20048;-82
2022/05/01 04:50:32;;;;;;;1999.90;999.90;;;12.80;52.60;;;;;;5032107;28;20029;-82
2022/05/01 04:53:00;;;;;;;1999.90;999.90;;;12.80;52.60;;;;;;5035803;28;20033;-82
2022/05/01 04:55:26;;;;;;;1999.90;999.90;;;12.80;52.60;;;;;;5032727;28;20041;-82
2022/05/01 04:57:52;;;;;;;1999.90;999.90;;;12.80;52.70;;;;;;5011478;28;20354;-82
2022/05/01 05:00:19;;;;;;;1999.90;999.90;;;12.70;52.70;;;;;;5028035;28;20064;-82
2022/05/01 05:02:52;;;;;;;1999.90;999.90;;;12.70;52.70;;;;;;5030265;28;20025;-82
2022/05/01 05:05:19;;;;;;;1999.90;999.90;;;12.70;52.70;;;;;;5014629;28;20042;-81
2022/05/01 05:07:46;;;;;;;1999.90;999.90;;;12.70;52.70;;;;;;5011480;28;20045;-81
2022/05/01 05:10:12;;;;;;;1999.90;999.90;;;12.70;52.90;;;;;;5030744;28;20044;-81
2022/05/01 05:12:42;;;;;;;1999.90;999.90;;;12.70;53.00;;;;;;5017206;28;20026;-82
2022/05/01 05:15:10;;;;;;;1999.90;999.90;;;12.60;52.90;;;;;;5027471;28;20037;-81
2022/05/01 05:17:36;;;;;;;1999.90;999.90;;;12.60;52.90;;;;;;5028909;28;20412;-81
2022/05/01 05:20:06;;;;;;;1999.90;999.90;;;12.60;52.90;;;;;;5011129;28;20466;-82
2022/05/01 05:22:33;;;;;;;1999.90;999.90;;;12.60;53.00;;;;;;5011306;28;20048;-81
2022/05/01 05:24:59;;;;;;;1999.90;999.90;;;12.60;53.00;;;;;;5011349;28;20026;-82
2022/05/01 05:27:28;;;;;;;1999.90;999.90;;;12.60;53.00;;;;;;5030240;28;20045;-82
2022/05/01 05:29:57;;;;;;;1999.90;999.90;;;12.60;53.10;;;;;;5026862;28;20489;-82
2022/05/01 05:32:23;;;;;;;1999.90;999.90;;;12.60;53.10;;;;;;5016449;28;20525;-82
2022/05/01 05:34:50;;;;;;;1999.90;999.90;;;12.60;53.10;;;;;;5031721;28;20398;-82
2022/05/01 05:37:16;;;;;;;1999.90;999.90;;;12.60;53.20;;;;;;5030694;28;20049;-81
2022/05/01 05:39:42;;;;;;;1999.90;999.90;;;12.60;53.20;;;;;;5027406;28;20356;-82
2022/05/01 05:42:09;;;;;;;1999.90;999.90;;;12.60;53.30;;;;;;5030324;28;20036;-82
2022/05/01 05:44:35;;;;;;;1999.90;999.90;;;12.50;53.60;;;;;;5012303;28;20041;-82
2022/05/01 05:47:01;;;;;;;1999.90;999.90;;;12.50;53.40;;;;;;5027745;28;20049;-82
2022/05/01 05:49:27;;;;;;;1999.90;999.90;;;12.60;53.40;;;;;;5022655;28;20029;-82
2022/05/01 05:51:53;;;;;;;1999.90;999.90;;;12.60;53.40;;;;;;5028515;28;20025;-82
2022/05/01 05:54:19;;;;;;;1999.90;999.90;;;12.60;53.40;;;;;;5027566;28;20025;-82
2022/05/01 05:56:45;;;;;;;1999.90;999.90;;;12.60;53.30;;;;;;5030243;28;20022;-82
2022/05/01 05:59:11;;;;;;;1999.90;999.90;;;12.70;53.20;;;;;;5028017;28;20041;-82
2022/05/01 06:01:38;;;;;;;1999.90;999.90;;;12.90;53.10;;;;;;5020470;28;20033;-82
2022/05/01 06:04:04;;;;;;;1999.90;999.90;;;13.10;52.90;;;;;;5028010;28;20033;-82
2022/05/01 06:06:30;;;;;;;1999.90;999.90;;;13.20;52.80;;;;;;5026095;28;20049;-82
2022/05/01 06:08:56;;;;;;;1999.90;999.90;;;13.20;52.70;;;;;;5031352;28;20041;-82
2022/05/01 06:11:22;;;;;;;1999.90;999.90;;;13.20;52.70;;;;;;5030517;28;20032;-82
2022/05/01 06:13:48;;;;;;;1999.90;999.90;;;13.30;52.90;;;;;;5026676;28;20048;-82
2022/05/01 06:16:14;;;;;;;1999.90;999.90;;;13.30;52.80;;;;;;5012255;28;20061;-82
2022/05/01 06:18:41;;;;;;;1999.90;999.90;;;13.30;52.80;;;;;;5024385;28;20033;-82
2022/05/01 06:21:08;;;;;;;1999.90;999.90;;;13.30;52.80;;;;;;5026134;28;20053;-82
2022/05/01 06:23:35;;;;;;;1999.90;999.90;;;13.40;52.80;;;;;;5027813;28;20479;-82
2022/05/01 06:26:04;;;;;;;1999.90;999.90;;;13.60;52.60;;;;;;5026496;28;20029;-82
2022/05/01 06:28:30;;;;;;;1999.90;999.90;;;13.70;52.40;;;;;;5010510;28;20142;-82
2022/05/01 06:30:57;;;;;;;1999.90;999.90;;;13.90;52.20;;;;;;5025943;28;20025;-82
2022/05/01 06:33:23;;;;;;;1999.90;999.90;;;14.10;52.10;;;;;;5026979;28;20030;-82
2022/05/01 06:35:51;;;;;;;1999.90;999.90;;;14.10;51.90;;;;;;5029522;28;20422;-82
2022/05/01 06:38:18;;;;;;;1999.90;999.90;;;14.20;51.90;;;;;;5009675;28;20029;-82
2022/05/01 06:40:44;;;;;;;1999.90;999.90;;;14.40;51.80;;;;;;5009918;28;20021;-82
2022/05/01 06:43:11;;;;;;;1999.90;999.90;;;14.50;51.70;;;;;;5028714;28;20021;-82
2022/05/01 06:45:37;;;;;;;1999.90;999.90;;;14.60;51.50;;;;;;5027246;28;20025;-82
2022/05/01 06:48:03;;;;;;;1999.90;999.90;;;14.70;51.30;;;;;;5030220;28;20251;-82
2022/05/01 06:50:30;;;;;;;1999.90;999.90;;;14.80;51.10;;;;;;5028043;28;20466;-82
2022/05/01 06:52:56;;;;;;;1999.90;999.90;;;14.80;51.10;;;;;;5017541;28;20036;-82
2022/05/01 06:55:25;;;;;;;1999.90;999.90;;;14.80;51.10;;;;;;5026844;28;20033;-82
2022/05/01 06:57:55;;;;;;;1999.90;999.90;;;14.90;51.10;;;;;;5010423;28;20035;-82
2022/05/01 07:00:21;;;;;;;1999.90;999.90;;;14.90;50.90;;;;;;5042557;28;20750;-82
2022/05/01 07:02:48;;;;;;;1999.90;999.90;;;14.90;51.00;;;;;;4993786;28;20471;-82
2022/05/01 07:05:14;;;;;;;1999.90;999.90;;;14.90;51.00;;;;;;5041395;28;20017;-83
2022/05/01 07:07:40;;;;;;;1999.90;999.90;;;14.80;51.00;;;;;;5026855;28;20089;-82
2022/05/01 07:10:08;;;;;;;1999.90;999.90;;;14.80;51.10;;;;;;5038433;28;20033;-82
2022/05/01 07:12:34;;;;;;;1999.90;999.90;;;14.90;51.10;;;;;;5026280;28;20387;-82
2022/05/01 07:15:00;;;;;;;1999.90;999.90;;;14.90;51.00;;;;;;5042197;28;20025;-82
2022/05/01 07:17:27;;;;;;;1999.90;999.90;;;15.00;50.90;;;;;;5009496;28;20064;-82
2022/05/01 07:19:53;;;;;;;1999.90;999.90;;;15.10;50.90;;;;;;5025899;28;20501;-83
2022/05/01 07:22:19;;;;;;;1999.90;999.90;;;15.20;50.80;;;;;;5026709;28;20034;-82
2022/05/01 07:24:45;;;;;;;1999.90;999.90;;;15.30;50.70;;;;;;5028659;28;20363;-82
2022/05/01 07:27:11;;;;;;;1999.90;999.90;;;15.40;50.50;;;;;;5029475;28;20459;-81
2022/05/01 07:29:37;;;;;;;1999.90;999.90;;;15.50;50.40;;;;;;5026969;28;20041;-81
2022/05/01 07:32:04;;;;;;;1999.90;999.90;;;15.50;50.20;;;;;;5026456;28;20041;-81
2022/05/01 07:34:30;;;;;;;1999.90;999.90;;;15.70;50.10;;;;;;5027257;28;20406;-82
2022/05/01 07:36:56;;;;;;;1999.90;999.90;;;15.90;49.80;;;;;;5021354;28;20029;-81
2022/05/01 07:39:22;;;;;;;1999.90;999.90;;;16.20;49.40;;;;;;5027301;28;20037;-82
2022/05/01 07:41:48;;;;;;;1999.90;999.90;;;16.30;49.20;;;;;;5028481;28;20044;-82
2022/05/01 07:44:14;;;;;;;1999.90;999.90;;;16.40;49.00;;;;;;5030214;28;20051;-82
2022/05/01 07:46:41;;;;;;;1999.90;999.90;;;16.50;48.90;;;;;;5029713;28;20037;-82
2022/05/01 07:49:07;;;;;;;1999.90;999.90;;;16.50;48.70;;;;;;4995096;28;20085;-82
2022/05/01 07:51:34;;;;;;;1999.90;999.90;;;16.60;48.70;;;;;;5025404;28;20045;-82
2022/05/01 07:54:04;;;;;;;1999.90;999.90;;;16.70;48.60;;;;;;5025626;28;20028;-82
2022/05/01 07:56:31;;;;;;;1999.90;999.90;;;17.00;48.30;;;;;;5027788;28;20037;-83
2022/05/01 07:58:57;;;;;;;1999.90;999.90;;;17.20;48.00;;;;;;5016997;28;20382;-82
2022/05/01 08:01:24;;;;;;;1999.90;999.90;;;17.40;47.70;;;;;;5029316;28;20037;-82
2022/05/01 08:06:35;;;;;;;1999.90;999.90;;;17.80;47.30;;;;;;5019158;28;20030;-82
2022/05/01 08:09:02;;;;;;;1999.90;999.90;;;17.90;46.90;;;;;;5028750;28;20394;-82
2022/05/01 08:11:28;;;;;;;1999.90;999.90;;;17.90;46.60;;;;;;5027922;28;20057;-82
2022/05/01 08:13:54;;;;;;;1999.90;999.90;;;17.90;46.60;;;;;;5024866;28;20040;-82
2022/05/01 08:16:20;;;;;;;1999.90;999.90;;;18.10;46.50;;;;;;5026669;28;20505;-82
2022/05/01 08:21:32;;;;;;;1999.90;999.90;;;18.30;45.80;;;;;;5014699;28;20033;-82
2022/05/01 08:23:59;;;;;;;1999.90;999.90;;;18.20;45.70;;;;;;5028346;28;20017;-82
2022/05/01 08:26:25;;;;;;;1999.90;999.90;;;18.30;45.70;;;;;;5045995;28;20036;-82
2022/05/01 08:28:53;;;;;;;1999.90;999.90;;;18.40;45.70;;;;;;5029776;28;20040;-82
2022/05/01 08:31:19;;;;;;;1999.90;999.90;;;18.40;45.40;;;;;;5040419;28;20040;-82
2022/05/01 08:33:45;;;;;;;1999.90;999.90;;;18.50;45.20;;;;;;5028583;28;20411;-82
2022/05/01 08:36:11;;;;;;;1999.90;999.90;;;18.60;45.20;;;;;;5031823;28;20036;-82
2022/05/01 08:38:37;;;;;;;1999.90;999.90;;;18.80;45.00;;;;;;5015343;28;20469;-82
2022/05/01 08:41:04;;;;;;;1999.90;999.90;;;19.10;44.70;;;;;;5028482;28;20033;-82
2022/05/01 08:43:31;;;;;;;1999.90;999.90;;;19.20;44.40;;;;;;5034023;28;20022;-82
2022/05/01 08:46:13;;;;;;;1999.90;999.90;;;19.20;44.20;;;;;;5028529;28;20026;-82
2022/05/01 08:48:42;;;;;;;1999.90;999.90;;;19.20;44.30;;;;;;5013944;28;20053;-81
2022/05/01 08:51:08;;;;;;;1999.90;999.90;;;19.30;44.20;;;;;;5044919;28;20029;-82
2022/05/01 08:53:36;;;;;;;1999.90;999.90;;;19.40;44.00;;;;;;5012892;28;20026;-81
2022/05/01 08:56:02;;;;;;;1999.90;999.90;;;19.40;43.70;;;;;;5028399;28;20029;-82
2022/05/01 08:58:29;;;;;;;1999.90;999.90;;;19.50;43.80;;;;;;5011763;28;20084;-82
2022/05/01 09:00:55;;;;;;;1999.90;999.90;;;19.50;43.70;;;;;;5011406;28;20029;-82
2022/05/01 09:03:21;;;;;;;1999.90;999.90;;;19.70;43.60;;;;;;5028456;28;20053;-82
2022/05/01 09:05:47;;;;;;;1999.90;999.90;;;19.90;43.30;;;;;;5014197;28;20032;-82
2022/05/01 09:08:13;;;;;;;1999.90;999.90;;;20.00;43.00;;;;;;5028950;28;20037;-82
2022/05/01 09:10:40;;;;;;;1999.90;999.90;;;20.20;43.00;;;;;;5029300;28;20442;-82
2022/05/01 09:13:06;;;;;;;1999.90;999.90;;;20.20;42.90;;;;;;4998755;28;20052;-82
2022/05/01 09:15:40;;;;;;;1999.90;999.90;;;20.30;42.80;;;;;;5029087;28;20038;-82
2022/05/01 09:18:11;;;;;;;1999.90;999.90;;;20.30;42.70;;;;;;5042480;28;20049;-82
2022/05/01 09:20:39;;;;;;;1999.90;999.90;;;20.30;42.50;;;;;;5029079;28;20486;-83
2022/05/01 09:23:06;;;;;;;1999.90;999.90;;;20.40;42.50;;;;;;5012537;28;20033;-82
2022/05/01 09:25:32;;;;;;;1999.90;999.90;;;20.60;42.40;;;;;;5027574;28;20042;-82
2022/05/01 09:28:00;;;;;;;1999.90;999.90;;;20.60;42.20;;;;;;5027655;28;20033;-82
2022/05/01 09:30:33;;;;;;;1999.90;999.90;;;20.80;41.80;;;;;;5043635;28;20052;-82
2022/05/01 09:32:59;;;;;;;1999.90;999.90;;;20.80;41.80;;;;;;5026897;28;20033;-82
2022/05/01 09:35:33;;;;;;;1999.90;999.90;;;20.80;41.40;;;;;;5030466;28;20397;-82
2022/05/01 09:38:09;;;;;;;1999.90;999.90;;;20.70;41.40;;;;;;5019349;28;20034;-82
2022/05/01 09:40:35;;;;;;;1999.90;999.90;;;20.60;41.30;;;;;;5028505;28;20025;-82
2022/05/01 09:43:01;;;;;;;1999.90;999.90;;;20.60;41.20;;;;;;5028433;28;20044;-82
2022/05/01 09:45:34;;;;;;;1999.90;999.90;;;20.60;41.20;;;;;;4994952;28;20036;-83
2022/05/01 09:48:00;;;;;;;1999.90;999.90;;;20.50;40.60;;;;;;5027794;28;20411;-82
2022/05/01 09:50:47;;;;;;;1999.90;999.90;;;20.40;40.40;;;;;;5028642;28;20041;-82
2022/05/01 09:53:13;;;;;;;1999.90;999.90;;;20.50;40.20;;;;;;5028300;28;20036;-82
2022/05/01 09:55:39;;;;;;;1999.90;999.90;;;20.60;40.00;;;;;;5021000;28;20025;-82
2022/05/01 09:58:12;;;;;;;1999.90;999.90;;;20.60;39.70;;;;;;5028430;28;20501;-82
2022/05/01 10:00:44;;;;;;;1999.90;999.90;;;20.60;39.50;;;;;;5042458;28;20048;-82
2022/05/01 10:03:28;;;;;;;1999.90;999.90;;;20.60;39.10;;;;;;5030378;28;20359;-83
2022/05/01 10:05:56;;;;;;;1999.90;999.90;;;20.60;38.70;;;;;;5030583;28;20025;-82
2022/05/01 10:08:22;;;;;;;1999.90;999.90;;;20.60;38.40;;;;;;5010576;28;20501;-82
2022/05/01 10:10:51;;;;;;;1999.90;999.90;;;20.60;38.30;;;;;;5027834;28;20033;-82
2022/05/01 10:13:17;;;;;;;1999.90;999.90;;;20.60;38.00;;;;;;5014197;28;20034;-83
2022/05/01 10:15:43;;;;;;;1999.90;999.90;;;20.80;38.10;;;;;;5009522;28;20060;-82
2022/05/01 10:18:10;;;;;;;1999.90;999.90;;;20.90;37.70;;;;;;5043340;28;20025;-82
2022/05/01 10:20:36;;;;;;;1999.90;999.90;;;21.00;37.60;;;;;;5011622;28;20382;-82
2022/05/01 10:23:03;;;;;;;1999.90;999.90;;;20.80;37.40;;;;;;5010431;28;20030;-82
2022/05/01 10:25:34;;;;;;;1999.90;999.90;;;20.70;37.70;;;;;;4998565;28;20048;-83
2022/05/01 10:28:28;;;;;;;1999.90;999.90;;;20.60;37.90;;;;;;5027463;28;20029;-83
2022/05/01 10:34:48;;;;;;;1999.90;999.90;;;20.70;37.20;;;;;;5021080;28;20394;-83
2022/05/01 10:37:35;;;;;;;1999.90;999.90;;;20.80;37.20;;;;;;5027679;28;20032;-83
2022/05/01 10:40:02;;;;;;;1999.90;999.90;;;21.00;37.00;;;;;;5027450;28;20025;-83
2022/05/01 10:42:33;;;;;;;1999.90;999.90;;;21.10;36.90;;;;;;5026399;28;20033;-82
2022/05/01 10:45:00;;;;;;;1999.90;999.90;;;21.20;36.70;;;;;;5009363;28;20029;-83
2022/05/01 10:47:37;;;;;;;1999.90;999.90;;;21.20;36.50;;;;;;5044064;28;20402;-83
2022/05/01 10:50:07;;;;;;;1999.90;999.90;;;21.20;36.50;;;;;;4996357;28;20045;-83
2022/05/01 10:52:33;;;;;;;1999.90;999.90;;;21.30;36.60;;;;;;5010105;28;20486;-83
2022/05/01 10:55:03;;;;;;;1999.90;999.90;;;21.40;36.40;;;;;;5023655;28;20494;-83
2022/05/01 10:57:30;;;;;;;1999.90;999.90;;;21.50;36.50;;;;;;5010700;28;20033;-83
2022/05/01 11:00:11;;;;;;;1999.90;999.90;;;21.60;36.30;;;;;;5041711;28;20041;-83
2022/05/01 11:02:38;;;;;;;1999.90;999.90;;;21.70;36.00;;;;;;5028233;28;20038;-83
2022/05/01 11:05:07;;;;;;;1999.90;999.90;;;21.70;35.80;;;;;;4992887;28;20042;-83
2022/05/01 11:07:35;;;;;;;1999.90;999.90;;;21.60;35.80;;;;;;5005884;28;20036;-82
2022/05/01 11:10:03;;;;;;;1999.90;999.90;;;21.70;36.00;;;;;;5012648;28;20379;-83
2022/05/01 11:12:32;;;;;;;1999.90;999.90;;;21.80;35.90;;;;;;5019205;28;20466;-83
2022/05/01 11:15:08;;;;;;;1999.90;999.90;;;21.80;35.80;;;;;;5028746;28;20046;-83
2022/05/01 11:17:39;;;;;;;1999.90;999.90;;;21.90;36.00;;;;;;5044110;28;20054;-83
2022/05/01 11:20:08;;;;;;;1999.90;999.90;;;21.90;35.70;;;;;;5028329;28;20033;-83
2022/05/01 11:22:35;;;;;;;1999.90;999.90;;;21.90;35.70;;;;;;5037319;28;20025;-83
2022/05/01 11:25:01;;;;;;;1999.90;999.90;;;21.90;35.60;;;;;;5008992;28;20045;-82
2022/05/01 11:27:27;;;;;;;1999.90;999.90;;;21.80;35.70;;;;;;5009637;28;20026;-83
2022/05/01 11:30:13;;;;;;;1999.90;999.90;;;21.70;35.70;;;;;;5012373;28;20036;-83
2022/05/01 11:32:46;;;;;;;1999.90;999.90;;;21.70;35.90;;;;;;5027723;28;20038;-83
2022/05/01 11:35:12;;;;;;;1999.90;999.90;;;21.80;35.90;;;;;;5015540;28;20033;-82
2022/05/01 11:38:06;;;;;;;1999.90;999.90;;;22.10;35.70;;;;;;4997588;28;20085;-83
2022/05/01 11:40:32;;;;;;;1999.90;999.90;;;22.30;35.40;;;;;;5025830;28;20386;-83
2022/05/01 11:43:15;;;;;;;1999.90;999.90;;;22.30;35.10;;;;;;5032049;28;20038;-83
2022/05/01 11:45:42;;;;;;;1999.90;999.90;;;22.20;35.10;;;;;;5016546;28;20034;-83
2022/05/01 11:48:15;;;;;;;1999.90;999.90;;;22.10;35.20;;;;;;5045547;28;20036;-82
2022/05/01 11:50:45;;;;;;;1999.90;999.90;;;22.10;35.30;;;;;;5015006;28;20045;-83
2022/05/01 11:53:22;;;;;;;1999.90;999.90;;;22.20;35.10;;;;;;5013616;28;20113;-83
2022/05/01 12:04:28;;;;;;;1999.90;999.90;;;22.20;35.00;;;;;;5019973;28;20037;-83
2022/05/01 12:07:04;;;;;;;1999.90;999.90;;;22.20;34.80;;;;;;5030603;28;20030;-83
2022/05/01 12:09:34;;;;;;;1999.90;999.90;;;22.30;34.90;;;;;;5014195;28;20299;-83
2022/05/01 12:12:01;;;;;;;1999.90;999.90;;;22.40;34.80;;;;;;5039330;28;20048;-83
2022/05/01 12:14:28;;;;;;;1999.90;999.90;;;22.50;34.80;;;;;;5029443;28;20454;-83
2022/05/01 12:16:54;;;;;;;1999.90;999.90;;;22.50;34.60;;;;;;5028219;28;20060;-83
2022/05/01 12:19:20;;;;;;;1999.90;999.90;;;22.60;34.40;;;;;;5029034;28;20036;-83
2022/05/01 12:21:47;;;;;;;1999.90;999.90;;;22.60;34.50;;;;;;5042389;28;20038;-83
2022/05/01 12:24:13;;;;;;;1999.90;999.90;;;22.60;34.30;;;;;;5029181;28;20055;-83
2022/05/01 12:26:47;;;;;;;1999.90;999.90;;;22.60;34.30;;;;;;5031526;28;20041;-83
2022/05/01 12:29:13;;;;;;;1999.90;999.90;;;22.80;34.30;;;;;;5018302;28;20052;-84
2022/05/01 12:31:55;;;;;;;1999.90;999.90;;;22.80;34.10;;;;;;5032160;28;20494;-82